Private Wetterstation Sandau
Wetterdaten: Donnerstag, 26.04.2012
Datum Zeit Temp. A. Feuchte A. Luftdruck Regen Wind Richtung Richtung Taupunkt Windchill
26.04.2012 00:01 12,9 C 51 % 1004,3 hPa 0,0 l/m 8,6 km/h (2 Bft) O-SO 112 3,0 C 12,9 C
26.04.2012 00:06 12,8 C 51 % 1004,3 hPa 0,0 l/m 7,9 km/h (2 Bft) O-SO 112 2,9 C 12,8 C
26.04.2012 00:11 12,6 C 51 % 1004,2 hPa 0,0 l/m 4,0 km/h (1 Bft) SO 135 2,7 C 12,6 C
26.04.2012 00:16 12,5 C 51 % 1004,4 hPa 0,0 l/m 10,8 km/h (2 Bft) SO 135 2,6 C 12,5 C
26.04.2012 00:21 12,4 C 51 % 1004,4 hPa 0,0 l/m 6,1 km/h (2 Bft) SO 135 2,6 C 12,4 C
26.04.2012 00:26 12,4 C 52 % 1004,4 hPa 0,0 l/m 4,7 km/h (1 Bft) SO 135 2,8 C 12,4 C
26.04.2012 00:31 12,3 C 52 % 1004,4 hPa 0,0 l/m 2,9 km/h (1 Bft) SO 135 2,7 C 12,3 C
26.04.2012 00:36 12,2 C 52 % 1004,3 hPa 0,0 l/m 5,0 km/h (1 Bft) SO 135 2,6 C 12,2 C
26.04.2012 00:41 12,1 C 53 % 1004,3 hPa 0,0 l/m 4,0 km/h (1 Bft) SO 135 2,8 C 12,1 C
26.04.2012 00:46 12,1 C 53 % 1004,1 hPa 0,0 l/m 3,2 km/h (1 Bft) O 90 2,8 C 12,1 C
26.04.2012 00:51 12,1 C 53 % 1004,3 hPa 0,0 l/m 6,8 km/h (2 Bft) SO 135 2,8 C 12,1 C
26.04.2012 00:56 11,9 C 53 % 1004,4 hPa 0,0 l/m 3,6 km/h (1 Bft) S-SO 157 2,6 C 11,9 C
26.04.2012 01:01 11,9 C 53 % 1004,4 hPa 0,0 l/m 6,5 km/h (2 Bft) S-SO 157 2,6 C 11,9 C
26.04.2012 01:06 11,9 C 53 % 1004,3 hPa 0,0 l/m 3,2 km/h (1 Bft) S-SO 157 2,6 C 11,9 C
26.04.2012 01:11 11,9 C 54 % 1004,2 hPa 0,0 l/m 8,3 km/h (2 Bft) S-SO 157 2,9 C 11,9 C
26.04.2012 01:16 11,8 C 54 % 1004,2 hPa 0,0 l/m 3,2 km/h (1 Bft) S 180 2,8 C 11,8 C
26.04.2012 01:21 11,8 C 54 % 1004,1 hPa 0,0 l/m 5,8 km/h (2 Bft) SO 135 2,8 C 11,8 C
26.04.2012 01:26 11,9 C 55 % 1004,2 hPa 0,0 l/m 13,3 km/h (3 Bft) S 180 3,2 C 11,9 C
26.04.2012 01:31 11,9 C 55 % 1004,2 hPa 0,0 l/m 9,0 km/h (2 Bft) S-SO 157 3,2 C 11,9 C
26.04.2012 01:36 11,9 C 55 % 1004,3 hPa 0,0 l/m 7,6 km/h (2 Bft) S-SO 157 3,2 C 11,9 C
26.04.2012 01:41 12,1 C 55 % 1004,2 hPa 0,0 l/m 4,0 km/h (1 Bft) S-SO 157 3,3 C 12,1 C
26.04.2012 01:46 12,1 C 55 % 1004,3 hPa 0,0 l/m 6,1 km/h (2 Bft) S-SO 157 3,3 C 12,1 C
26.04.2012 01:51 12,1 C 55 % 1004,0 hPa 0,0 l/m 5,4 km/h (1 Bft) S 180 3,3 C 12,1 C
26.04.2012 01:56 12,1 C 55 % 1004,0 hPa 0,0 l/m 3,2 km/h (1 Bft) S 180 3,3 C 12,1 C
26.04.2012 02:01 12,1 C 55 % 1004,0 hPa 0,0 l/m 3,6 km/h (1 Bft) S-SO 157 3,3 C 12,1 C
26.04.2012 02:06 12,2 C 55 % 1004,0 hPa 0,0 l/m 6,1 km/h (2 Bft) SO 135 3,4 C 12,2 C
26.04.2012 02:11 12,2 C 55 % 1004,0 hPa 0,0 l/m 5,0 km/h (1 Bft) S-SO 157 3,4 C 12,2 C
26.04.2012 02:16 12,2 C 55 % 1004,0 hPa 0,0 l/m 2,2 km/h (1 Bft) S 180 3,4 C 12,2 C
26.04.2012 02:21 12,1 C 56 % 1004,0 hPa 0,0 l/m 4,7 km/h (1 Bft) S-SO 157 3,6 C 12,1 C
26.04.2012 02:26 12,1 C 56 % 1004,1 hPa 0,0 l/m 5,0 km/h (1 Bft) S-SO 157 3,6 C 12,1 C
26.04.2012 02:31 12,1 C 56 % 1004,1 hPa 0,0 l/m 3,6 km/h (1 Bft) SO 135 3,6 C 12,1 C
26.04.2012 02:36 12,1 C 56 % 1004,0 hPa 0,0 l/m 4,0 km/h (1 Bft) S 180 3,6 C 12,1 C
26.04.2012 02:41 12,1 C 56 % 1003,9 hPa 0,0 l/m 9,4 km/h (2 Bft) S-SO 157 3,6 C 12,1 C
26.04.2012 02:46 12,1 C 56 % 1003,8 hPa 0,0 l/m 4,0 km/h (1 Bft) SO 135 3,6 C 12,1 C
26.04.2012 02:51 12,1 C 56 % 1004,0 hPa 0,0 l/m 8,3 km/h (2 Bft) S-SO 157 3,6 C 12,1 C
26.04.2012 02:56 12,1 C 57 % 1004,1 hPa 0,0 l/m 7,6 km/h (2 Bft) S 180 3,8 C 12,1 C
26.04.2012 03:01 12,1 C 57 % 1004,1 hPa 0,0 l/m 7,9 km/h (2 Bft) S-SW 202 3,8 C 12,1 C
26.04.2012 03:06 12,0 C 57 % 1004,2 hPa 0,0 l/m 3,6 km/h (1 Bft) S-SO 157 3,8 C 12,0 C
26.04.2012 03:11 11,9 C 57 % 1004,2 hPa 0,0 l/m 2,5 km/h (1 Bft) S-SW 202 3,7 C 11,9 C
26.04.2012 03:16 11,9 C 57 % 1004,1 hPa 0,0 l/m 5,8 km/h (2 Bft) S 180 3,7 C 11,9 C
26.04.2012 03:21 11,8 C 57 % 1004,0 hPa 0,0 l/m 4,0 km/h (1 Bft) S-SO 157 3,6 C 11,8 C
26.04.2012 03:26 11,8 C 58 % 1004,1 hPa 0,0 l/m 5,8 km/h (2 Bft) SO 135 3,8 C 11,8 C
26.04.2012 03:31 11,6 C 58 % 1004,0 hPa 0,0 l/m 5,8 km/h (2 Bft) S-SO 157 3,6 C 11,6 C
26.04.2012 03:36 11,6 C 58 % 1004,1 hPa 0,0 l/m 3,2 km/h (1 Bft) S-SO 157 3,6 C 11,6 C
26.04.2012 03:41 11,5 C 58 % 1004,3 hPa 0,0 l/m 4,3 km/h (1 Bft) SO 135 3,5 C 11,5 C
26.04.2012 03:46 11,4 C 58 % 1004,3 hPa 0,0 l/m 8,6 km/h (2 Bft) S-SO 157 3,4 C 11,4 C
26.04.2012 03:51 11,4 C 58 % 1004,3 hPa 0,0 l/m 3,6 km/h (1 Bft) SO 135 3,4 C 11,4 C
26.04.2012 03:56 11,4 C 58 % 1004,4 hPa 0,0 l/m 3,6 km/h (1 Bft) S 180 3,4 C 11,4 C
26.04.2012 04:01 11,3 C 59 % 1004,4 hPa 0,0 l/m 4,7 km/h (1 Bft) SO 135 3,6 C 11,3 C
26.04.2012 04:06 11,3 C 59 % 1004,2 hPa 0,0 l/m 5,8 km/h (2 Bft) S-SO 157 3,6 C 11,3 C
26.04.2012 04:11 11,3 C 59 % 1004,3 hPa 0,0 l/m 4,7 km/h (1 Bft) S 180 3,6 C 11,3 C
26.04.2012 04:16 11,3 C 59 % 1004,3 hPa 0,0 l/m 2,5 km/h (1 Bft) NO 45 3,6 C 11,3 C
26.04.2012 04:21 11,3 C 59 % 1004,2 hPa 0,0 l/m 3,6 km/h (1 Bft) S 180 3,6 C 11,3 C
26.04.2012 04:26 11,4 C 59 % 1004,2 hPa 0,0 l/m 7,2 km/h (2 Bft) S-SO 157 3,7 C 11,4 C
26.04.2012 04:31 11,5 C 59 % 1004,3 hPa 0,0 l/m 4,3 km/h (1 Bft) SO 135 3,8 C 11,5 C
26.04.2012 04:36 11,5 C 59 % 1004,1 hPa 0,0 l/m 9,7 km/h (2 Bft) SO 135 3,8 C 11,5 C
26.04.2012 04:41 11,6 C 59 % 1004,1 hPa 0,0 l/m 9,4 km/h (2 Bft) S-SO 157 3,9 C 11,6 C
26.04.2012 04:46 11,6 C 59 % 1004,1 hPa 0,0 l/m 0,0 km/h (0 Bft) S 180 3,9 C 11,6 C
26.04.2012 04:51 11,6 C 59 % 1004,1 hPa 0,0 l/m 3,2 km/h (1 Bft) S-SO 157 3,9 C 11,6 C
26.04.2012 04:56 11,6 C 59 % 1004,1 hPa 0,0 l/m 2,5 km/h (1 Bft) SO 135 3,9 C 11,6 C
26.04.2012 05:01 11,6 C 59 % 1004,2 hPa 0,0 l/m 3,6 km/h (1 Bft) SO 135 3,9 C 11,6 C
26.04.2012 05:06 11,6 C 59 % 1004,1 hPa 0,0 l/m 5,0 km/h (1 Bft) S-SO 157 3,9 C 11,6 C
26.04.2012 05:11 11,7 C 59 % 1004,3 hPa 0,0 l/m 3,2 km/h (1 Bft) S-SO 157 4,0 C 11,7 C
26.04.2012 05:16 11,8 C 59 % 1004,3 hPa 0,0 l/m 4,3 km/h (1 Bft) SO 135 4,1 C 11,8 C
26.04.2012 05:21 11,8 C 59 % 1004,2 hPa 0,0 l/m 6,1 km/h (2 Bft) S 180 4,1 C 11,8 C
26.04.2012 05:26 11,8 C 60 % 1004,2 hPa 0,0 l/m 5,0 km/h (1 Bft) S 180 4,3 C 11,8 C
26.04.2012 05:31 11,8 C 60 % 1004,1 hPa 0,0 l/m 3,2 km/h (1 Bft) S-SO 157 4,3 C 11,8 C
26.04.2012 05:36 11,9 C 60 % 1004,2 hPa 0,0 l/m 4,3 km/h (1 Bft) S-SO 157 4,4 C 11,9 C
26.04.2012 05:41 11,9 C 59 % 1004,0 hPa 0,0 l/m 4,0 km/h (1 Bft) S-SO 157 4,1 C 11,9 C
26.04.2012 05:46 11,9 C 59 % 1004,0 hPa 0,0 l/m 4,0 km/h (1 Bft) SO 135 4,1 C 11,9 C
26.04.2012 05:51 12,1 C 60 % 1004,1 hPa 0,0 l/m 6,1 km/h (2 Bft) S 180 4,6 C 12,1 C
26.04.2012 05:56 12,1 C 59 % 1004,0 hPa 0,0 l/m 9,0 km/h (2 Bft) S-SO 157 4,3 C 12,1 C
26.04.2012 06:01 12,1 C 59 % 1004,1 hPa 0,0 l/m 3,2 km/h (1 Bft) S-SO 157 4,3 C 12,1 C
26.04.2012 06:06 12,1 C 59 % 1004,1 hPa 0,0 l/m 6,8 km/h (2 Bft) O-SO 112 4,3 C 12,1 C
26.04.2012 06:11 12,1 C 59 % 1004,1 hPa 0,0 l/m 8,3 km/h (2 Bft) SO 135 4,3 C 12,1 C
26.04.2012 06:16 12,1 C 59 % 1004,1 hPa 0,0 l/m 6,1 km/h (2 Bft) SO 135 4,3 C 12,1 C
26.04.2012 06:21 12,1 C 59 % 1004,1 hPa 0,0 l/m 8,3 km/h (2 Bft) SO 135 4,3 C 12,1 C
26.04.2012 06:26 12,1 C 59 % 1004,3 hPa 0,0 l/m 7,6 km/h (2 Bft) SO 135 4,3 C 12,1 C
26.04.2012 06:31 12,1 C 59 % 1004,2 hPa 0,0 l/m 7,6 km/h (2 Bft) S-SO 157 4,3 C 12,1 C
26.04.2012 06:36 12,1 C 59 % 1004,6 hPa 0,0 l/m 9,4 km/h (2 Bft) SO 135 4,3 C 12,1 C
26.04.2012 06:41 12,1 C 59 % 1004,9 hPa 0,0 l/m 4,0 km/h (1 Bft) S-SO 157 4,3 C 12,1 C
26.04.2012 06:46 12,1 C 59 % 1005,0 hPa 0,0 l/m 2,5 km/h (1 Bft) S-SO 157 4,3 C 12,1 C
26.04.2012 06:51 12,1 C 59 % 1005,0 hPa 0,0 l/m 4,0 km/h (1 Bft) SO 135 4,3 C 12,1 C
26.04.2012 06:56 12,1 C 60 % 1004,9 hPa 0,0 l/m 1,4 km/h (1 Bft) S-SW 202 4,6 C 12,1 C
26.04.2012 07:01 12,1 C 60 % 1004,8 hPa 0,0 l/m 2,2 km/h (1 Bft) S 180 4,6 C 12,1 C
26.04.2012 07:06 12,1 C 60 % 1005,0 hPa 0,0 l/m 4,7 km/h (1 Bft) SO 135 4,6 C 12,1 C
26.04.2012 07:11 12,1 C 61 % 1005,1 hPa 0,0 l/m 5,0 km/h (1 Bft) S-SO 157 4,8 C 12,1 C
26.04.2012 07:16 12,1 C 61 % 1004,9 hPa 0,0 l/m 6,8 km/h (2 Bft) S 180 4,8 C 12,1 C
26.04.2012 07:21 12,1 C 61 % 1004,8 hPa 0,0 l/m 2,5 km/h (1 Bft) SO 135 4,8 C 12,1 C
26.04.2012 07:26 12,2 C 61 % 1005,1 hPa 0,0 l/m 6,1 km/h (2 Bft) O-SO 112 4,9 C 12,2 C
26.04.2012 07:31 12,2 C 61 % 1005,1 hPa 0,0 l/m 6,5 km/h (2 Bft) S-SO 157 4,9 C 12,2 C
26.04.2012 07:36 12,3 C 61 % 1004,9 hPa 0,0 l/m 4,7 km/h (1 Bft) S-SO 157 5,0 C 12,3 C
26.04.2012 07:41 12,4 C 61 % 1004,9 hPa 0,0 l/m 2,5 km/h (1 Bft) SO 135 5,1 C 12,4 C
26.04.2012 07:46 12,4 C 60 % 1005,0 hPa 0,0 l/m 5,8 km/h (2 Bft) S 180 4,9 C 12,4 C
26.04.2012 07:51 12,4 C 60 % 1005,1 hPa 0,0 l/m 4,0 km/h (1 Bft) S 180 4,9 C 12,4 C
26.04.2012 07:56 12,4 C 60 % 1005,1 hPa 0,0 l/m 6,8 km/h (2 Bft) S 180 4,9 C 12,4 C
26.04.2012 08:01 12,4 C 60 % 1005,1 hPa 0,0 l/m 3,6 km/h (1 Bft) S-SO 157 4,9 C 12,4 C
26.04.2012 08:06 12,5 C 60 % 1005,2 hPa 0,0 l/m 0,0 km/h (0 Bft) SO 135 5,0 C 12,5 C
26.04.2012 08:11 12,5 C 60 % 1005,4 hPa 0,0 l/m 0,0 km/h (0 Bft) S-SO 157 5,0 C 12,5 C
26.04.2012 08:16 12,5 C 60 % 1005,3 hPa 0,0 l/m 0,0 km/h (0 Bft) S-SO 157 5,0 C 12,5 C
26.04.2012 08:21 12,5 C 61 % 1005,3 hPa 0,0 l/m 0,0 km/h (0 Bft) S-SO 157 5,2 C 12,5 C
26.04.2012 08:26 12,6 C 61 % 1005,5 hPa 0,0 l/m 1,1 km/h (1 Bft) SO 135 5,3 C 12,6 C
26.04.2012 08:31 12,6 C 61 % 1005,7 hPa 0,0 l/m 1,1 km/h (1 Bft) SW 225 5,3 C 12,6 C
26.04.2012 08:36 12,6 C 61 % 1005,8 hPa 0,0 l/m 1,4 km/h (1 Bft) S-SO 157 5,3 C 12,6 C
26.04.2012 08:41 12,6 C 61 % 1005,7 hPa 0,0 l/m 0,0 km/h (0 Bft) S-SO 157 5,3 C 12,6 C
26.04.2012 08:46 12,6 C 62 % 1005,7 hPa 0,0 l/m 0,0 km/h (0 Bft) S-SO 157 5,5 C 12,6 C
26.04.2012 08:51 12,7 C 62 % 1005,9 hPa 0,0 l/m 2,2 km/h (1 Bft) SW 225 5,6 C 12,7 C
26.04.2012 08:56 12,8 C 62 % 1006,0 hPa 0,0 l/m 2,5 km/h (1 Bft) S-SO 157 5,7 C 12,8 C
26.04.2012 09:01 12,8 C 62 % 1006,2 hPa 0,0 l/m 2,2 km/h (1 Bft) S 180 5,7 C 12,8 C
26.04.2012 09:06 12,7 C 62 % 1006,2 hPa 0,0 l/m 3,6 km/h (1 Bft) S-SO 157 5,6 C 12,7 C
26.04.2012 09:11 12,6 C 63 % 1005,9 hPa 0,0 l/m 2,5 km/h (1 Bft) SO 135 5,7 C 12,6 C
26.04.2012 09:16 12,6 C 63 % 1006,0 hPa 0,0 l/m 3,2 km/h (1 Bft) SO 135 5,7 C 12,6 C
26.04.2012 09:21 12,6 C 63 % 1005,7 hPa 0,0 l/m 5,0 km/h (1 Bft) SO 135 5,7 C 12,6 C
26.04.2012 09:26 12,6 C 63 % 1005,6 hPa 0,0 l/m 2,5 km/h (1 Bft) SO 135 5,7 C 12,6 C
26.04.2012 09:31 12,6 C 63 % 1005,8 hPa 0,0 l/m 4,3 km/h (1 Bft) S-SO 157 5,7 C 12,6 C
26.04.2012 09:36 12,6 C 63 % 1005,6 hPa 0,0 l/m 5,8 km/h (2 Bft) S-SO 157 5,7 C 12,6 C
26.04.2012 09:41 12,6 C 63 % 1005,9 hPa 0,0 l/m 2,9 km/h (1 Bft) S 180 5,7 C 12,6 C
26.04.2012 09:46 12,6 C 63 % 1006,2 hPa 0,0 l/m 1,4 km/h (1 Bft) S-SO 157 5,7 C 12,6 C
26.04.2012 09:51 12,6 C 63 % 1006,3 hPa 0,0 l/m 4,0 km/h (1 Bft) S-SO 157 5,7 C 12,6 C
26.04.2012 09:56 12,6 C 63 % 1006,6 hPa 0,0 l/m 1,8 km/h (1 Bft) S-SO 157 5,7 C 12,6 C
26.04.2012 10:01 12,6 C 63 % 1006,2 hPa 0,0 l/m 6,1 km/h (2 Bft) S-SO 157 5,7 C 12,6 C
26.04.2012 10:06 12,6 C 63 % 1006,1 hPa 0,0 l/m 4,0 km/h (1 Bft) SO 135 5,7 C 12,6 C
26.04.2012 10:11 12,6 C 63 % 1005,9 hPa 0,0 l/m 3,6 km/h (1 Bft) SO 135 5,7 C 12,6 C
26.04.2012 10:16 12,6 C 63 % 1005,9 hPa 0,0 l/m 3,6 km/h (1 Bft) S-SO 157 5,7 C 12,6 C
26.04.2012 10:21 12,6 C 63 % 1006,1 hPa 0,0 l/m 5,0 km/h (1 Bft) SO 135 5,7 C 12,6 C
26.04.2012 10:26 12,7 C 64 % 1006,0 hPa 0,0 l/m 5,8 km/h (2 Bft) S 180 6,1 C 12,7 C
26.04.2012 10:31 12,8 C 64 % 1006,2 hPa 0,0 l/m 0,0 km/h (0 Bft) SO 135 6,2 C 12,8 C
26.04.2012 10:36 12,9 C 64 % 1006,3 hPa 0,0 l/m 0,0 km/h (0 Bft) S 180 6,3 C 12,9 C
26.04.2012 10:41 12,9 C 63 % 1006,4 hPa 0,0 l/m 3,2 km/h (1 Bft) S-SW 202 6,0 C 12,9 C
26.04.2012 10:46 13,0 C 63 % 1006,3 hPa 0,0 l/m 6,1 km/h (2 Bft) S 180 6,1 C 13,0 C
26.04.2012 10:51 13,1 C 63 % 1006,3 hPa 0,0 l/m 4,7 km/h (1 Bft) S-SO 157 6,2 C 13,1 C
26.04.2012 10:56 13,1 C 63 % 1006,4 hPa 0,0 l/m 4,7 km/h (1 Bft) S-SO 157 6,2 C 13,1 C
26.04.2012 11:01 13,1 C 63 % 1006,5 hPa 0,0 l/m 4,3 km/h (1 Bft) S-SW 202 6,2 C 13,1 C
26.04.2012 11:06 13,2 C 64 % 1006,3 hPa 0,0 l/m 4,7 km/h (1 Bft) SO 135 6,5 C 13,2 C
26.04.2012 11:11 13,2 C 64 % 1006,3 hPa 0,0 l/m 7,2 km/h (2 Bft) SO 135 6,5 C 13,2 C
26.04.2012 11:16 13,2 C 64 % 1006,3 hPa 0,0 l/m 5,8 km/h (2 Bft) S 180 6,5 C 13,2 C
26.04.2012 11:21 13,2 C 64 % 1006,5 hPa 0,0 l/m 6,1 km/h (2 Bft) S-SO 157 6,5 C 13,2 C
26.04.2012 11:26 13,2 C 64 % 1006,5 hPa 0,0 l/m 6,5 km/h (2 Bft) S-SO 157 6,5 C 13,2 C
26.04.2012 11:31 13,3 C 64 % 1006,2 hPa 0,0 l/m 6,1 km/h (2 Bft) S 180 6,6 C 13,3 C
26.04.2012 11:36 13,3 C 64 % 1006,1 hPa 0,0 l/m 4,0 km/h (1 Bft) S-SO 157 6,6 C 13,3 C
26.04.2012 11:41 13,4 C 64 % 1006,4 hPa 0,0 l/m 3,6 km/h (1 Bft) S 180 6,7 C 13,4 C
26.04.2012 11:46 13,7 C 64 % 1006,6 hPa 0,0 l/m 10,4 km/h (2 Bft) S 180 7,0 C 13,7 C
26.04.2012 11:51 14,0 C 63 % 1006,6 hPa 0,0 l/m 4,7 km/h (1 Bft) S 180 7,1 C 14,0 C
26.04.2012 11:56 14,3 C 61 % 1006,7 hPa 0,0 l/m 13,3 km/h (3 Bft) S-SO 157 6,9 C 14,3 C
26.04.2012 12:01 14,5 C 61 % 1006,6 hPa 0,0 l/m 7,6 km/h (2 Bft) SO 135 7,1 C 14,5 C
26.04.2012 12:06 14,9 C 60 % 1006,6 hPa 0,0 l/m 12,6 km/h (3 Bft) SO 135 7,2 C 14,9 C
26.04.2012 12:11 15,2 C 59 % 1006,6 hPa 0,0 l/m 2,5 km/h (1 Bft) S 180 7,2 C 15,2 C
26.04.2012 12:16 15,5 C 59 % 1006,5 hPa 0,0 l/m 8,3 km/h (2 Bft) S 180 7,5 C 15,5 C
26.04.2012 12:21 15,9 C 57 % 1006,7 hPa 0,0 l/m 12,6 km/h (3 Bft) S 180 7,4 C 15,9 C
26.04.2012 12:26 16,2 C 56 % 1006,6 hPa 0,0 l/m 19,1 km/h (3 Bft) S 180 7,4 C 16,2 C
26.04.2012 12:31 16,7 C 55 % 1006,6 hPa 0,0 l/m 12,6 km/h (3 Bft) S-SO 157 7,6 C 16,7 C
26.04.2012 12:36 17,0 C 54 % 1006,5 hPa 0,0 l/m 17,3 km/h (3 Bft) S 180 7,6 C 17,0 C
26.04.2012 12:41 17,3 C 54 % 1006,6 hPa 0,0 l/m 7,2 km/h (2 Bft) S-SO 157 7,9 C 17,3 C
26.04.2012 12:46 17,3 C 54 % 1006,7 hPa 0,0 l/m 16,9 km/h (3 Bft) SW 225 7,9 C 17,3 C
26.04.2012 12:51 17,4 C 54 % 1006,7 hPa 0,0 l/m 9,7 km/h (2 Bft) SO 135 8,0 C 17,4 C
26.04.2012 12:56 17,4 C 54 % 1006,5 hPa 0,0 l/m 4,0 km/h (1 Bft) SO 135 8,0 C 17,4 C
26.04.2012 13:01 17,5 C 53 % 1006,6 hPa 0,0 l/m 7,2 km/h (2 Bft) S-SW 202 7,8 C 17,5 C
26.04.2012 13:06 17,6 C 54 % 1006,6 hPa 0,0 l/m 23,0 km/h (4 Bft) S 180 8,2 C 17,6 C
26.04.2012 13:11 17,8 C 53 % 1006,7 hPa 0,0 l/m 10,1 km/h (2 Bft) S-SW 202 8,1 C 17,8 C
26.04.2012 13:16 17,8 C 53 % 1006,6 hPa 0,0 l/m 14,8 km/h (3 Bft) S 180 8,1 C 17,8 C
26.04.2012 13:21 17,9 C 52 % 1006,7 hPa 0,0 l/m 15,8 km/h (3 Bft) W-SW 247 7,9 C 17,9 C
26.04.2012 13:26 18,1 C 51 % 1006,8 hPa 0,0 l/m 20,9 km/h (4 Bft) S 180 7,8 C 18,1 C
26.04.2012 13:31 18,3 C 50 % 1006,7 hPa 0,0 l/m 19,1 km/h (3 Bft) W-SW 247 7,7 C 18,3 C
26.04.2012 13:36 18,3 C 51 % 1006,9 hPa 0,0 l/m 7,6 km/h (2 Bft) W 270 8,0 C 18,3 C
26.04.2012 13:41 18,2 C 51 % 1006,9 hPa 0,0 l/m 13,3 km/h (3 Bft) S-SW 202 7,9 C 18,2 C
26.04.2012 13:46 18,2 C 51 % 1006,9 hPa 0,0 l/m 15,1 km/h (3 Bft) S-SW 202 7,9 C 18,2 C
26.04.2012 13:51 18,1 C 50 % 1006,9 hPa 0,0 l/m 24,5 km/h (4 Bft) SW 225 7,5 C 18,1 C
26.04.2012 13:56 17,9 C 49 % 1007,0 hPa 0,0 l/m 8,6 km/h (2 Bft) W-SW 247 7,0 C 17,9 C
26.04.2012 14:01 17,9 C 49 % 1006,9 hPa 0,0 l/m 16,9 km/h (3 Bft) S-SW 202 7,0 C 17,9 C
26.04.2012 14:06 17,8 C 49 % 1007,2 hPa 0,0 l/m 14,8 km/h (3 Bft) S-SW 202 6,9 C 17,8 C
26.04.2012 14:11 17,6 C 50 % 1007,2 hPa 0,0 l/m 14,8 km/h (3 Bft) S 180 7,1 C 17,6 C
26.04.2012 14:16 17,4 C 50 % 1007,2 hPa 0,0 l/m 7,6 km/h (2 Bft) S 180 6,9 C 17,4 C
26.04.2012 14:21 17,4 C 50 % 1007,4 hPa 0,0 l/m 9,7 km/h (2 Bft) S-SO 157 6,9 C 17,4 C
26.04.2012 14:26 17,3 C 51 % 1007,1 hPa 0,0 l/m 10,1 km/h (2 Bft) S-SW 202 7,1 C 17,3 C
26.04.2012 14:31 17,2 C 51 % 1007,2 hPa 0,0 l/m 8,6 km/h (2 Bft) S-SO 157 7,0 C 17,2 C
26.04.2012 14:36 17,1 C 51 % 1007,0 hPa 0,0 l/m 20,9 km/h (4 Bft) S-SW 202 6,9 C 17,1 C
26.04.2012 14:41 16,9 C 51 % 1007,3 hPa 0,0 l/m 8,6 km/h (2 Bft) S-SW 202 6,7 C 16,9 C
26.04.2012 14:46 16,9 C 51 % 1007,5 hPa 0,0 l/m 6,1 km/h (2 Bft) S-SO 157 6,7 C 16,9 C
26.04.2012 14:51 16,9 C 51 % 1007,7 hPa 0,0 l/m 23,0 km/h (4 Bft) S-SW 202 6,7 C 16,9 C
26.04.2012 14:56 16,8 C 51 % 1007,5 hPa 0,0 l/m 10,8 km/h (2 Bft) SW 225 6,6 C 16,8 C
26.04.2012 15:01 16,8 C 52 % 1007,8 hPa 0,0 l/m 12,2 km/h (2 Bft) S-SW 202 6,9 C 16,8 C
26.04.2012 15:06 16,7 C 52 % 1007,7 hPa 0,0 l/m 17,3 km/h (3 Bft) W-SW 247 6,8 C 16,7 C
26.04.2012 15:11 16,7 C 52 % 1007,8 hPa 0,0 l/m 5,4 km/h (1 Bft) S 180 6,8 C 16,7 C
26.04.2012 15:16 16,7 C 52 % 1007,8 hPa 0,0 l/m 10,1 km/h (2 Bft) SW 225 6,8 C 16,7 C
26.04.2012 15:21 16,8 C 52 % 1007,9 hPa 0,0 l/m 11,9 km/h (2 Bft) S-SO 157 6,9 C 16,8 C
26.04.2012 15:26 16,8 C 52 % 1008,0 hPa 0,0 l/m 17,6 km/h (3 Bft) S-SW 202 6,9 C 16,8 C
26.04.2012 15:31 16,8 C 52 % 1008,2 hPa 0,0 l/m 29,2 km/h (5 Bft) W-SW 247 6,9 C 16,8 C
26.04.2012 15:36 16,8 C 52 % 1008,1 hPa 0,0 l/m 10,8 km/h (2 Bft) S-SO 157 6,9 C 16,8 C
26.04.2012 15:41 16,8 C 52 % 1008,1 hPa 0,0 l/m 9,7 km/h (2 Bft) S-SW 202 6,9 C 16,8 C
26.04.2012 15:46 16,8 C 52 % 1008,3 hPa 0,0 l/m 11,9 km/h (2 Bft) S-SO 157 6,9 C 16,8 C
26.04.2012 15:51 16,9 C 53 % 1008,3 hPa 0,0 l/m 11,2 km/h (2 Bft) S 180 7,3 C 16,9 C
26.04.2012 15:56 16,8 C 53 % 1008,4 hPa 0,0 l/m 18,0 km/h (3 Bft) S 180 7,2 C 16,8 C
26.04.2012 16:01 16,8 C 53 % 1008,4 hPa 0,0 l/m 16,9 km/h (3 Bft) S-SO 157 7,2 C 16,8 C
26.04.2012 16:06 16,8 C 53 % 1008,3 hPa 0,0 l/m 10,4 km/h (2 Bft) S 180 7,2 C 16,8 C
26.04.2012 16:11 16,8 C 53 % 1008,3 hPa 0,0 l/m 8,6 km/h (2 Bft) SW 225 7,2 C 16,8 C
26.04.2012 16:16 16,7 C 53 % 1008,5 hPa 0,0 l/m 9,4 km/h (2 Bft) S-SW 202 7,1 C 16,7 C
26.04.2012 16:21 16,7 C 53 % 1008,7 hPa 0,0 l/m 7,2 km/h (2 Bft) S 180 7,1 C 16,7 C
26.04.2012 16:26 16,6 C 53 % 1008,7 hPa 0,0 l/m 11,5 km/h (2 Bft) W-SW 247 7,0 C 16,6 C
26.04.2012 16:31 16,6 C 53 % 1008,7 hPa 0,0 l/m 6,5 km/h (2 Bft) S-SO 157 7,0 C 16,6 C
26.04.2012 16:36 16,5 C 53 % 1008,8 hPa 0,0 l/m 9,0 km/h (2 Bft) S-SW 202 6,9 C 16,5 C
26.04.2012 16:41 16,4 C 53 % 1008,8 hPa 0,0 l/m 10,1 km/h (2 Bft) SW 225 6,8 C 16,4 C
26.04.2012 16:46 16,4 C 52 % 1008,7 hPa 0,0 l/m 11,2 km/h (2 Bft) S-SW 202 6,5 C 16,4 C
26.04.2012 16:51 16,4 C 52 % 1008,8 hPa 0,0 l/m 7,2 km/h (2 Bft) S 180 6,5 C 16,4 C
26.04.2012 16:56 16,4 C 52 % 1008,7 hPa 0,0 l/m 6,8 km/h (2 Bft) S-SO 157 6,5 C 16,4 C
26.04.2012 17:01 16,3 C 52 % 1008,8 hPa 0,0 l/m 8,6 km/h (2 Bft) S-SW 202 6,4 C 16,3 C
26.04.2012 17:06 16,2 C 52 % 1008,6 hPa 0,0 l/m 8,6 km/h (2 Bft) S 180 6,3 C 16,2 C
26.04.2012 17:11 16,2 C 53 % 1008,9 hPa 0,0 l/m 9,7 km/h (2 Bft) S-SW 202 6,6 C 16,2 C
26.04.2012 17:16 16,1 C 53 % 1009,0 hPa 0,0 l/m 14,4 km/h (3 Bft) SW 225 6,5 C 16,1 C
26.04.2012 17:21 16,1 C 53 % 1008,8 hPa 0,0 l/m 5,8 km/h (2 Bft) S 180 6,5 C 16,1 C
26.04.2012 17:26 16,1 C 53 % 1008,8 hPa 0,0 l/m 4,7 km/h (1 Bft) S-SO 157 6,5 C 16,1 C
26.04.2012 17:31 16,0 C 53 % 1009,1 hPa 0,0 l/m 8,3 km/h (2 Bft) S 180 6,4 C 16,0 C
26.04.2012 17:36 15,9 C 53 % 1009,2 hPa 0,0 l/m 8,6 km/h (2 Bft) S-SW 202 6,3 C 15,9 C
26.04.2012 17:41 15,9 C 53 % 1009,2 hPa 0,0 l/m 18,7 km/h (3 Bft) S-SW 202 6,3 C 15,9 C
26.04.2012 17:46 15,9 C 53 % 1009,2 hPa 0,0 l/m 10,1 km/h (2 Bft) W-SW 247 6,3 C 15,9 C
26.04.2012 17:51 15,9 C 53 % 1009,3 hPa 0,0 l/m 11,5 km/h (2 Bft) W-SW 247 6,3 C 15,9 C
26.04.2012 17:56 15,9 C 53 % 1009,3 hPa 0,0 l/m 7,2 km/h (2 Bft) S-SW 202 6,3 C 15,9 C
26.04.2012 18:01 15,9 C 53 % 1009,3 hPa 0,0 l/m 12,2 km/h (2 Bft) W 270 6,3 C 15,9 C
26.04.2012 18:06 15,9 C 53 % 1009,5 hPa 0,0 l/m 10,4 km/h (2 Bft) W-SW 247 6,3 C 15,9 C
26.04.2012 18:11 15,9 C 53 % 1009,2 hPa 0,0 l/m 5,8 km/h (2 Bft) S-SW 202 6,3 C 15,9 C
26.04.2012 18:16 15,9 C 54 % 1009,5 hPa 0,0 l/m 9,4 km/h (2 Bft) S-SW 202 6,6 C 15,9 C
26.04.2012 18:21 15,8 C 54 % 1009,4 hPa 0,0 l/m 5,8 km/h (2 Bft) SW 225 6,5 C 15,8 C
26.04.2012 18:26 15,8 C 54 % 1009,5 hPa 0,0 l/m 8,3 km/h (2 Bft) S 180 6,5 C 15,8 C
26.04.2012 18:31 15,8 C 54 % 1009,8 hPa 0,0 l/m 9,4 km/h (2 Bft) S 180 6,5 C 15,8 C
26.04.2012 18:36 15,8 C 54 % 1009,6 hPa 0,0 l/m 10,4 km/h (2 Bft) S 180 6,5 C 15,8 C
26.04.2012 18:41 15,8 C 54 % 1009,3 hPa 0,0 l/m 7,2 km/h (2 Bft) O-SO 112 6,5 C 15,8 C
26.04.2012 18:46 15,8 C 54 % 1009,6 hPa 0,0 l/m 2,5 km/h (1 Bft) SW 225 6,5 C 15,8 C
26.04.2012 18:51 15,7 C 55 % 1009,6 hPa 0,0 l/m 8,3 km/h (2 Bft) SW 225 6,7 C 15,7 C
26.04.2012 18:56 15,6 C 55 % 1009,6 hPa 0,0 l/m 4,7 km/h (1 Bft) S-SW 202 6,6 C 15,6 C
26.04.2012 19:01 15,6 C 55 % 1009,5 hPa 0,0 l/m 4,3 km/h (1 Bft) S 180 6,6 C 15,6 C
26.04.2012 19:06 15,6 C 55 % 1009,8 hPa 0,0 l/m 9,4 km/h (2 Bft) S-SW 202 6,6 C 15,6 C
26.04.2012 19:11 15,5 C 55 % 1009,8 hPa 0,0 l/m 7,9 km/h (2 Bft) S 180 6,5 C 15,5 C
26.04.2012 19:16 15,5 C 55 % 1009,9 hPa 0,0 l/m 6,1 km/h (2 Bft) W-SW 247 6,5 C 15,5 C
26.04.2012 19:21 15,5 C 55 % 1009,9 hPa 0,0 l/m 9,4 km/h (2 Bft) SO 135 6,5 C 15,5 C
26.04.2012 19:26 15,5 C 55 % 1010,0 hPa 0,0 l/m 4,7 km/h (1 Bft) S-SW 202 6,5 C 15,5 C
26.04.2012 19:31 15,5 C 55 % 1010,0 hPa 0,0 l/m 6,1 km/h (2 Bft) S 180 6,5 C 15,5 C
26.04.2012 19:36 15,4 C 55 % 1010,1 hPa 0,0 l/m 5,4 km/h (1 Bft) SW 225 6,4 C 15,4 C
26.04.2012 19:41 15,4 C 55 % 1009,9 hPa 0,0 l/m 14,4 km/h (3 Bft) S-SW 202 6,4 C 15,4 C
26.04.2012 19:46 15,4 C 55 % 1009,8 hPa 0,0 l/m 8,3 km/h (2 Bft) SW 225 6,4 C 15,4 C
26.04.2012 19:51 15,3 C 55 % 1009,8 hPa 0,0 l/m 4,3 km/h (1 Bft) S 180 6,3 C 15,3 C
26.04.2012 19:56 15,3 C 55 % 1009,7 hPa 0,0 l/m 6,1 km/h (2 Bft) S-SO 157 6,3 C 15,3 C
26.04.2012 20:01 15,3 C 55 % 1009,8 hPa 0,0 l/m 10,8 km/h (2 Bft) SW 225 6,3 C 15,3 C
26.04.2012 20:06 15,2 C 55 % 1009,9 hPa 0,0 l/m 8,6 km/h (2 Bft) SO 135 6,2 C 15,2 C
26.04.2012 20:11 15,2 C 55 % 1010,0 hPa 0,0 l/m 6,1 km/h (2 Bft) SW 225 6,2 C 15,2 C
26.04.2012 20:16 15,2 C 55 % 1010,1 hPa 0,0 l/m 9,4 km/h (2 Bft) S-SW 202 6,2 C 15,2 C
26.04.2012 20:21 15,1 C 55 % 1010,1 hPa 0,0 l/m 2,9 km/h (1 Bft) SW 225 6,1 C 15,1 C
26.04.2012 20:26 14,9 C 55 % 1010,1 hPa 0,0 l/m 3,6 km/h (1 Bft) S 180 5,9 C 14,9 C
26.04.2012 20:31 14,9 C 55 % 1010,2 hPa 0,0 l/m 4,7 km/h (1 Bft) S-SW 202 5,9 C 14,9 C
26.04.2012 20:36 14,9 C 56 % 1010,2 hPa 0,0 l/m 4,7 km/h (1 Bft) S-SW 202 6,2 C 14,9 C
26.04.2012 20:41 14,9 C 56 % 1010,3 hPa 0,0 l/m 8,3 km/h (2 Bft) SW 225 6,2 C 14,9 C
26.04.2012 20:46 14,9 C 56 % 1010,4 hPa 0,0 l/m 3,2 km/h (1 Bft) S-SW 202 6,2 C 14,9 C
26.04.2012 20:51 14,9 C 56 % 1010,5 hPa 0,0 l/m 3,6 km/h (1 Bft) S 180 6,2 C 14,9 C
26.04.2012 20:56 14,9 C 57 % 1010,7 hPa 0,0 l/m 2,2 km/h (1 Bft) W-SW 247 6,5 C 14,9 C
26.04.2012 21:01 14,8 C 57 % 1010,7 hPa 0,0 l/m 0,0 km/h (0 Bft) W-SW 247 6,4 C 14,8 C
26.04.2012 21:06 14,7 C 57 % 1010,9 hPa 0,0 l/m 5,8 km/h (2 Bft) W 270 6,3 C 14,7 C
26.04.2012 21:11 14,6 C 57 % 1011,0 hPa 0,0 l/m 3,6 km/h (1 Bft) W-SW 247 6,2 C 14,6 C
26.04.2012 21:16 14,6 C 57 % 1011,1 hPa 0,0 l/m 2,9 km/h (1 Bft) W-SW 247 6,2 C 14,6 C
26.04.2012 21:21 14,6 C 57 % 1011,0 hPa 0,0 l/m 3,2 km/h (1 Bft) W 270 6,2 C 14,6 C
26.04.2012 21:26 14,5 C 58 % 1011,1 hPa 0,0 l/m 4,0 km/h (1 Bft) W-SW 247 6,3 C 14,5 C
26.04.2012 21:31 14,5 C 58 % 1011,3 hPa 0,0 l/m 2,9 km/h (1 Bft) W 270 6,3 C 14,5 C
26.04.2012 21:36 14,4 C 58 % 1011,4 hPa 0,0 l/m 7,9 km/h (2 Bft) W-SW 247 6,2 C 14,4 C
26.04.2012 21:41 14,4 C 58 % 1011,3 hPa 0,0 l/m 4,0 km/h (1 Bft) W 270 6,2 C 14,4 C
26.04.2012 21:46 14,4 C 58 % 1011,5 hPa 0,0 l/m 5,8 km/h (2 Bft) W 270 6,2 C 14,4 C
26.04.2012 21:51 14,3 C 59 % 1011,6 hPa 0,0 l/m 3,2 km/h (1 Bft) W 270 6,4 C 14,3 C
26.04.2012 21:56 14,2 C 59 % 1011,6 hPa 0,0 l/m 2,5 km/h (1 Bft) W 270 6,3 C 14,2 C
26.04.2012 22:01 14,2 C 59 % 1011,6 hPa 0,0 l/m 5,4 km/h (1 Bft) W-SW 247 6,3 C 14,2 C
26.04.2012 22:06 14,1 C 59 % 1011,6 hPa 0,0 l/m 5,4 km/h (1 Bft) SW 225 6,2 C 14,1 C
26.04.2012 22:11 14,1 C 59 % 1011,6 hPa 0,0 l/m 5,8 km/h (2 Bft) W-SW 247 6,2 C 14,1 C
26.04.2012 22:16 14,1 C 60 % 1011,7 hPa 0,0 l/m 4,0 km/h (1 Bft) W-SW 247 6,5 C 14,1 C
26.04.2012 22:21 13,9 C 59 % 1011,5 hPa 0,0 l/m 8,3 km/h (2 Bft) S-SW 202 6,0 C 13,9 C
26.04.2012 22:26 13,9 C 59 % 1011,6 hPa 0,0 l/m 5,4 km/h (1 Bft) S-SW 202 6,0 C 13,9 C
26.04.2012 22:31 13,9 C 59 % 1011,6 hPa 0,0 l/m 5,8 km/h (2 Bft) S-SW 202 6,0 C 13,9 C
26.04.2012 22:36 13,9 C 59 % 1011,7 hPa 0,0 l/m 0,0 km/h (0 Bft) SW 225 6,0 C 13,9 C
26.04.2012 22:41 13,9 C 60 % 1011,7 hPa 0,0 l/m 5,4 km/h (1 Bft) SW 225 6,3 C 13,9 C
26.04.2012 22:46 13,9 C 59 % 1011,5 hPa 0,0 l/m 4,3 km/h (1 Bft) SW 225 6,0 C 13,9 C
26.04.2012 22:51 13,9 C 60 % 1011,7 hPa 0,0 l/m 4,7 km/h (1 Bft) W-SW 247 6,3 C 13,9 C
26.04.2012 22:56 13,9 C 59 % 1011,6 hPa 0,0 l/m 3,6 km/h (1 Bft) SW 225 6,0 C 13,9 C
26.04.2012 23:01 13,9 C 59 % 1011,7 hPa 0,0 l/m 0,0 km/h (0 Bft) S 180 6,0 C 13,9 C
26.04.2012 23:06 13,9 C 60 % 1011,6 hPa 0,0 l/m 4,0 km/h (1 Bft) S-SW 202 6,3 C 13,9 C
26.04.2012 23:11 13,8 C 60 % 1011,5 hPa 0,0 l/m 0,0 km/h (0 Bft) S 180 6,2 C 13,8 C
26.04.2012 23:16 13,8 C 60 % 1011,4 hPa 0,0 l/m 3,2 km/h (1 Bft) W-SW 247 6,2 C 13,8 C
26.04.2012 23:21 13,8 C 60 % 1011,5 hPa 0,0 l/m 2,5 km/h (1 Bft) W-SW 247 6,2 C 13,8 C
26.04.2012 23:26 13,8 C 60 % 1011,5 hPa 0,0 l/m 2,5 km/h (1 Bft) W-SW 247 6,2 C 13,8 C
26.04.2012 23:31 13,7 C 60 % 1011,7 hPa 0,0 l/m 4,0 km/h (1 Bft) SW 225 6,1 C 13,7 C
26.04.2012 23:36 13,6 C 61 % 1011,8 hPa 0,0 l/m 4,3 km/h (1 Bft) W-SW 247 6,2 C 13,6 C
26.04.2012 23:41 13,6 C 61 % 1011,8 hPa 0,0 l/m 4,7 km/h (1 Bft) W-SW 247 6,2 C 13,6 C
26.04.2012 23:46 13,5 C 61 % 1011,7 hPa 0,0 l/m 0,0 km/h (0 Bft) W 270 6,1 C 13,5 C
26.04.2012 23:51 13,5 C 61 % 1012,0 hPa 0,0 l/m 2,2 km/h (1 Bft) W-SW 247 6,1 C 13,5 C
26.04.2012 23:56 13,5 C 61 % 1012,1 hPa 0,0 l/m 0,0 km/h (0 Bft) S-SW 202 6,1 C 13,5 C
_ Min-Zeit 04:01 13:56 02:46 - 04:46 - - 00:21 04:01
Minimum _ 11,3 C 49 % 1003,8 hPa - 0,0 km/h (0 Bft) - - 2,6 C 11,3 C
_ Max-Zeit 13:31 10:26 23:56 00:01 15:31 - - 13:06 13:31
Maximum _ 18,3 C 64 % 1012,1 hPa 0,0 l/m 29,2 km/h
W-SW (5 Bft)
- - 8,2 C 18,3 C
Durchschnitt _ 14,0 C 57 % 1007,0 hPa #0,0 l/m 6,7 km/h (2 Bft) S-SO - 5,6 C 14,0 C
(c) by David Heller